createdAt,value
2022-07-26T00:04:16.565Z,6.82
2022-07-26T00:09:20.835Z,7.20
2022-07-26T00:14:25.043Z,7.10
2022-07-26T00:19:30.491Z,6.80
2022-07-26T00:24:35.570Z,6.97
2022-07-26T00:29:39.852Z,6.97
2022-07-26T00:34:45.292Z,8.20
2022-07-26T00:39:49.441Z,6.82
2022-07-26T00:44:53.921Z,7.47
2022-07-26T00:49:59.671Z,6.22
2022-07-26T00:55:04.758Z,6.60
2022-07-26T01:00:12.520Z,6.57
2022-07-26T01:05:18.535Z,6.80
2022-07-26T01:10:22.575Z,6.53
2022-07-26T01:15:26.671Z,6.65
2022-07-26T01:20:32.207Z,6.38
2022-07-26T01:25:43.214Z,6.00
2022-07-26T01:30:47.806Z,6.55
2022-07-26T01:35:51.933Z,7.30
2022-07-26T01:40:57.471Z,6.95
2022-07-26T01:46:01.700Z,6.82
2022-07-26T01:51:06.152Z,7.03
2022-07-26T01:56:12.130Z,6.88
2022-07-26T02:01:16.478Z,7.30
2022-07-26T02:06:40.730Z,7.78
2022-07-26T02:11:48.876Z,6.65
2022-07-26T02:16:59.897Z,6.93
2022-07-26T02:22:04.389Z,6.82
2022-07-26T02:27:10.635Z,6.78
2022-07-26T02:32:14.783Z,6.80
2022-07-26T02:37:19.180Z,5.75
2022-07-26T02:42:24.822Z,6.32
2022-07-26T02:47:29.257Z,6.65
2022-07-26T02:52:34.761Z,6.05
2022-07-26T02:57:45.574Z,6.63
2022-07-26T03:02:51.871Z,6.60
2022-07-26T03:07:55.936Z,6.55
2022-07-26T03:13:01.507Z,6.50
2022-07-26T03:18:06.106Z,6.70
2022-07-26T03:23:10.145Z,7.20
2022-07-26T03:28:19.505Z,8.90
2022-07-26T03:33:23.902Z,7.90
2022-07-26T03:38:27.944Z,6.75
2022-07-26T03:43:36.234Z,7.57
2022-07-26T03:48:40.724Z,7.28
2022-07-26T03:53:45.829Z,7.63
2022-07-26T03:58:51.234Z,7.20
2022-07-26T04:03:55.401Z,7.20
2022-07-26T04:08:59.655Z,8.20
2022-07-26T04:14:05.557Z,6.57
2022-07-26T04:19:10.372Z,6.75
2022-07-26T04:24:14.668Z,8.15
2022-07-26T04:29:20.359Z,8.35
2022-07-26T04:34:24.639Z,6.75
2022-07-26T04:39:28.773Z,7.38
2022-07-26T04:44:34.268Z,8.43
2022-07-26T04:49:38.741Z,8.20
2022-07-26T04:54:42.785Z,9.07
2022-07-26T04:59:58.352Z,9.07
2022-07-26T05:05:12.392Z,8.50
2022-07-26T05:10:18.777Z,9.02
2022-07-26T05:15:24.025Z,9.45
2022-07-26T05:20:29.534Z,9.07
2022-07-26T05:25:34.178Z,9.30
2022-07-26T05:30:39.825Z,10.15
2022-07-26T05:35:44.249Z,9.13
2022-07-26T05:40:50.749Z,9.27
2022-07-26T05:45:58.001Z,8.55
2022-07-26T05:51:02.355Z,10.02
2022-07-26T05:56:07.612Z,8.00
2022-07-26T06:01:13.049Z,8.27
2022-07-26T06:06:17.453Z,8.35
2022-07-26T06:11:21.701Z,9.23
2022-07-26T06:16:27.480Z,8.68
2022-07-26T06:21:31.561Z,9.23
2022-07-26T06:26:35.750Z,10.27
2022-07-26T06:31:41.830Z,9.93
2022-07-26T06:36:46.535Z,8.63
2022-07-26T06:41:50.871Z,8.93
2022-07-26T06:47:01.003Z,9.07
2022-07-26T06:52:05.419Z,8.23
2022-07-26T06:57:10.131Z,7.68
2022-07-26T07:02:16.065Z,8.60
2022-07-26T07:07:20.229Z,7.25
2022-07-26T07:12:24.357Z,7.28
2022-07-26T07:17:30.775Z,7.10
2022-07-26T07:22:34.886Z,6.55
2022-07-26T07:27:38.981Z,7.50
2022-07-26T07:32:47.303Z,8.05
2022-07-26T07:37:53.725Z,7.95
2022-07-26T07:42:58.379Z,7.88
2022-07-26T07:48:04.207Z,8.00
2022-07-26T07:53:08.222Z,7.97
2022-07-26T07:58:12.335Z,8.50
2022-07-26T08:03:20.058Z,7.03
2022-07-26T08:08:24.160Z,7.38
2022-07-26T08:13:28.501Z,7.28
2022-07-26T08:18:34.246Z,7.90
2022-07-26T08:23:38.388Z,7.45
2022-07-26T08:28:47.845Z,6.88
2022-07-26T08:33:53.974Z,7.32
2022-07-26T08:38:58.102Z,7.72
2022-07-26T08:44:12.954Z,7.05
2022-07-26T08:49:18.604Z,8.00
2022-07-26T08:59:21.774Z,6.70
2022-07-26T09:04:32.088Z,6.05
2022-07-26T09:09:40.339Z,7.13
2022-07-26T09:14:48.025Z,6.72
2022-07-26T09:20:06.757Z,6.78
2022-07-26T09:25:23.791Z,5.97
2022-07-26T09:30:31.198Z,6.95
2022-07-26T09:35:50.711Z,5.70
2022-07-26T09:40:56.116Z,5.72
2022-07-26T09:46:07.512Z,6.43
2022-07-26T09:51:12.047Z,6.18
2022-07-26T09:56:16.339Z,6.53
2022-07-26T10:01:21.880Z,5.80
2022-07-26T10:06:30.260Z,6.55
2022-07-26T10:11:42.977Z,7.10
2022-07-26T10:16:48.462Z,6.57
2022-07-26T10:21:53.541Z,8.38
2022-07-26T10:27:00.553Z,7.93
2022-07-26T10:32:21.441Z,7.43
2022-07-26T10:37:29.440Z,7.05
2022-07-26T10:42:45.496Z,7.72
2022-07-26T10:48:13.833Z,7.45
2022-07-26T10:58:24.923Z,7.13
2022-07-26T11:03:40.130Z,7.07
2022-07-26T11:08:48.326Z,6.85
2022-07-26T11:13:53.824Z,6.47
2022-07-26T11:18:59.266Z,6.78
2022-07-26T11:24:04.149Z,6.55
2022-07-26T11:29:08.211Z,6.00
2022-07-26T11:34:20.562Z,6.53
2022-07-26T11:39:25.770Z,5.68
2022-07-26T11:44:30.548Z,5.65
2022-07-26T11:55:03.046Z,6.30
2022-07-26T12:00:08.627Z,5.60
2022-07-26T12:05:22.334Z,5.53
2022-07-26T12:10:27.693Z,4.97
2022-07-26T12:15:45.747Z,5.63
2022-07-26T12:21:04.465Z,5.97
2022-07-26T12:26:24.585Z,4.93
2022-07-26T12:31:30.407Z,5.80
2022-07-26T12:36:36.385Z,5.45
2022-07-26T12:41:42.526Z,6.10
2022-07-26T12:46:46.835Z,4.30
2022-07-26T12:51:52.619Z,4.47
2022-07-26T12:56:56.826Z,5.38
2022-07-26T13:02:01.357Z,4.88
2022-07-26T13:07:08.336Z,4.85
2022-07-26T13:12:13.462Z,5.05
2022-07-26T13:17:18.011Z,6.43
2022-07-26T13:22:23.632Z,5.80
2022-07-26T13:27:35.532Z,6.38
2022-07-26T13:32:41.534Z,5.68
2022-07-26T13:37:47.743Z,6.15
2022-07-26T13:42:52.205Z,6.15
2022-07-26T13:47:56.946Z,5.82
2022-07-26T13:53:02.753Z,5.88
2022-07-26T13:58:10.087Z,5.93
2022-07-26T14:03:15.189Z,6.05
2022-07-26T14:08:23.273Z,5.38
2022-07-26T14:13:27.492Z,6.15
2022-07-26T14:18:33.184Z,5.43
2022-07-26T14:23:38.814Z,6.63
2022-07-26T14:28:42.945Z,5.75
2022-07-26T14:33:47.333Z,6.68
2022-07-26T14:38:53.068Z,6.05
2022-07-26T14:49:02.798Z,5.50
2022-07-26T14:54:08.733Z,5.65
2022-07-26T14:59:14.929Z,7.03
2022-07-26T15:04:19.366Z,6.25
2022-07-26T15:09:26.377Z,5.68
2022-07-26T15:14:30.508Z,6.03
2022-07-26T15:19:35.154Z,5.50
2022-07-26T15:24:41.025Z,5.28
2022-07-26T15:29:46.939Z,4.25
2022-07-26T15:34:53.532Z,5.45
2022-07-26T15:39:59.666Z,4.85
2022-07-26T15:45:09.497Z,4.93
2022-07-26T15:50:15.755Z,4.97
2022-07-26T15:55:21.543Z,5.22
2022-07-26T16:00:27.131Z,4.97
2022-07-26T16:05:31.235Z,4.55
2022-07-26T16:10:37.371Z,4.60
2022-07-26T16:15:41.455Z,4.90
2022-07-26T16:20:47.304Z,4.78
2022-07-26T16:25:52.910Z,4.93
2022-07-26T16:30:57.006Z,5.40
2022-07-26T16:36:05.979Z,5.18
2022-07-26T16:41:12.233Z,5.63
2022-07-26T16:46:16.507Z,7.45
2022-07-26T16:51:21.623Z,6.72
2022-07-26T16:56:27.520Z,6.10
2022-07-26T17:01:31.733Z,5.60
2022-07-26T17:06:35.861Z,6.18
2022-07-26T17:11:41.438Z,6.18
2022-07-26T17:16:45.787Z,8.60
2022-07-26T17:21:50.091Z,7.40
2022-07-26T17:26:55.585Z,7.95
2022-07-26T17:31:59.711Z,6.85
2022-07-26T17:37:07.088Z,7.25
2022-07-26T17:42:15.851Z,7.82
2022-07-26T17:47:28.317Z,6.93
2022-07-26T17:52:33.100Z,6.93
2022-07-26T17:57:38.800Z,6.78
2022-07-26T18:02:42.911Z,6.28
2022-07-26T18:07:47.062Z,7.05
2022-07-26T18:12:52.573Z,7.75
2022-07-26T18:17:56.736Z,7.38
2022-07-26T18:23:00.895Z,8.05
2022-07-26T18:28:07.324Z,7.78
2022-07-26T18:33:14.426Z,7.13
2022-07-26T18:38:19.374Z,7.53
2022-07-26T18:43:25.032Z,7.95
2022-07-26T18:48:29.330Z,10.70
2022-07-26T18:53:33.699Z,7.72
2022-07-26T18:58:39.316Z,8.27
2022-07-26T19:03:43.641Z,7.30
2022-07-26T19:08:47.854Z,6.68
2022-07-26T19:13:53.348Z,6.82
2022-07-26T19:18:57.752Z,7.72
2022-07-26T19:24:02.098Z,9.07
2022-07-26T19:29:08.028Z,7.35
2022-07-26T19:34:12.632Z,7.55
2022-07-26T19:39:16.856Z,7.40
2022-07-26T19:44:22.358Z,8.52
2022-07-26T19:49:26.586Z,7.10
2022-07-26T19:54:30.935Z,10.57
2022-07-26T19:59:36.462Z,7.70
2022-07-26T20:04:45.483Z,8.35
2022-07-26T20:09:50.626Z,7.82
2022-07-26T20:14:56.224Z,8.60
2022-07-26T20:20:00.320Z,7.65
2022-07-26T20:25:04.525Z,7.57
2022-07-26T20:30:13.029Z,6.90
2022-07-26T20:35:17.238Z,8.27
2022-07-26T20:40:21.395Z,8.65
2022-07-26T20:45:29.024Z,7.70
2022-07-26T20:50:35.173Z,7.60
2022-07-26T20:55:39.551Z,7.78
2022-07-26T21:00:45.320Z,7.97
2022-07-26T21:05:49.984Z,7.72
2022-07-26T21:10:55.652Z,7.82
2022-07-26T21:16:01.236Z,7.75
2022-07-26T21:21:05.715Z,8.10
2022-07-26T21:26:12.686Z,8.57
2022-07-26T21:31:18.299Z,9.13
2022-07-26T21:36:22.806Z,9.02
2022-07-26T21:41:27.154Z,8.63
2022-07-26T21:46:32.861Z,8.48
2022-07-26T21:51:37.045Z,7.97
2022-07-26T21:56:41.483Z,7.93
2022-07-26T22:01:47.001Z,8.90
2022-07-26T22:06:51.242Z,8.55
2022-07-26T22:11:55.641Z,8.38
2022-07-26T22:17:02.179Z,8.18
2022-07-26T22:22:06.376Z,8.05
2022-07-26T22:27:10.694Z,9.43
2022-07-26T22:32:16.096Z,9.02
2022-07-26T22:37:20.223Z,9.70
2022-07-26T22:42:24.369Z,8.98
2022-07-26T22:47:29.953Z,8.82
2022-07-26T22:52:34.499Z,9.18
2022-07-26T22:57:38.646Z,8.30
2022-07-26T23:02:44.871Z,8.98
2022-07-26T23:07:49.002Z,8.80
2022-07-26T23:12:55.460Z,8.23
2022-07-26T23:18:01.097Z,9.65
2022-07-26T23:23:05.312Z,8.88
2022-07-26T23:28:09.312Z,9.40
2022-07-26T23:33:53.197Z,9.38
2022-07-26T23:38:54.976Z,9.50
2022-07-26T23:43:59.281Z,9.45
2022-07-26T23:49:05.254Z,9.20
2022-07-26T23:54:09.387Z,9.15
2022-07-26T23:59:14.438Z,9.18
